sensor_id;sensor_type;location;lat;lon;timestamp;P1;durP1;ratioP1;P2;durP2;ratioP2
60014;SDS011;45867;52.480;6.056;2023-08-06T00:02:04;19.23;;;9.93;;
60014;SDS011;45867;52.480;6.056;2023-08-06T00:07:28;14.57;;;9.02;;
60014;SDS011;45867;52.480;6.056;2023-08-06T00:10:16;15.00;;;10.10;;
60014;SDS011;45867;52.480;6.056;2023-08-06T00:12:59;18.80;;;10.05;;
60014;SDS011;45867;52.480;6.056;2023-08-06T00:15:41;16.75;;;10.40;;
60014;SDS011;45867;52.480;6.056;2023-08-06T00:18:11;18.70;;;11.00;;
60014;SDS011;45867;52.480;6.056;2023-08-06T00:20:39;20.65;;;9.82;;
60014;SDS011;45867;52.480;6.056;2023-08-06T00:23:11;17.27;;;10.02;;
60014;SDS011;45867;52.480;6.056;2023-08-06T00:25:42;15.65;;;10.35;;
60014;SDS011;45867;52.480;6.056;2023-08-06T00:28:13;23.13;;;10.75;;
60014;SDS011;45867;52.480;6.056;2023-08-06T00:30:43;21.67;;;9.88;;
60014;SDS011;45867;52.480;6.056;2023-08-06T00:33:16;20.53;;;10.23;;
60014;SDS011;45867;52.480;6.056;2023-08-06T00:36:08;20.60;;;10.48;;
60014;SDS011;45867;52.480;6.056;2023-08-06T00:38:46;17.55;;;10.48;;
60014;SDS011;45867;52.480;6.056;2023-08-06T00:41:15;18.20;;;10.48;;
60014;SDS011;45867;52.480;6.056;2023-08-06T00:43:55;17.90;;;10.43;;
60014;SDS011;45867;52.480;6.056;2023-08-06T00:46:28;16.52;;;10.10;;
60014;SDS011;45867;52.480;6.056;2023-08-06T00:49:03;16.50;;;9.77;;
60014;SDS011;45867;52.480;6.056;2023-08-06T00:51:47;17.38;;;10.57;;
60014;SDS011;45867;52.480;6.056;2023-08-06T00:54:42;14.48;;;9.90;;
60014;SDS011;45867;52.480;6.056;2023-08-06T00:57:29;19.95;;;10.52;;
60014;SDS011;45867;52.480;6.056;2023-08-06T00:59:58;17.65;;;9.35;;
60014;SDS011;45867;52.480;6.056;2023-08-06T01:05:31;15.00;;;9.88;;
60014;SDS011;45867;52.480;6.056;2023-08-06T01:14:08;16.23;;;9.77;;
60014;SDS011;45867;52.480;6.056;2023-08-06T01:16:46;18.40;;;9.77;;
60014;SDS011;45867;52.480;6.056;2023-08-06T01:19:43;17.30;;;10.18;;
60014;SDS011;45867;52.480;6.056;2023-08-06T01:22:12;19.98;;;10.38;;
60014;SDS011;45867;52.480;6.056;2023-08-06T01:24:48;18.00;;;9.98;;
60014;SDS011;45867;52.480;6.056;2023-08-06T01:27:34;17.02;;;10.00;;
60014;SDS011;45867;52.480;6.056;2023-08-06T01:33:03;17.50;;;9.73;;
60014;SDS011;45867;52.480;6.056;2023-08-06T01:35:47;24.60;;;10.40;;
60014;SDS011;45867;52.480;6.056;2023-08-06T01:38:20;20.52;;;9.90;;
60014;SDS011;45867;52.480;6.056;2023-08-06T01:41:10;18.35;;;10.23;;
60014;SDS011;45867;52.480;6.056;2023-08-06T01:43:37;16.30;;;9.38;;
60014;SDS011;45867;52.480;6.056;2023-08-06T01:46:03;19.73;;;9.45;;
60014;SDS011;45867;52.480;6.056;2023-08-06T01:48:30;29.02;;;11.57;;
60014;SDS011;45867;52.480;6.056;2023-08-06T01:50:57;17.27;;;10.05;;
60014;SDS011;45867;52.480;6.056;2023-08-06T01:53:23;17.25;;;9.98;;
60014;SDS011;45867;52.480;6.056;2023-08-06T01:56:00;18.85;;;9.68;;
60014;SDS011;45867;52.480;6.056;2023-08-06T01:58:34;15.85;;;9.70;;
60014;SDS011;45867;52.480;6.056;2023-08-06T02:01:01;19.27;;;10.20;;
60014;SDS011;45867;52.480;6.056;2023-08-06T02:03:29;19.45;;;10.30;;
60014;SDS011;45867;52.480;6.056;2023-08-06T02:05:55;14.57;;;9.93;;
60014;SDS011;45867;52.480;6.056;2023-08-06T02:08:22;20.23;;;9.43;;
60014;SDS011;45867;52.480;6.056;2023-08-06T02:10:48;17.30;;;10.05;;
60014;SDS011;45867;52.480;6.056;2023-08-06T02:13:15;20.30;;;9.60;;
60014;SDS011;45867;52.480;6.056;2023-08-06T02:15:42;14.65;;;9.18;;
60014;SDS011;45867;52.480;6.056;2023-08-06T02:18:12;15.52;;;9.77;;
60014;SDS011;45867;52.480;6.056;2023-08-06T02:20:38;18.20;;;9.73;;
60014;SDS011;45867;52.480;6.056;2023-08-06T02:23:05;15.50;;;9.48;;
60014;SDS011;45867;52.480;6.056;2023-08-06T02:25:31;17.67;;;9.35;;
60014;SDS011;45867;52.480;6.056;2023-08-06T02:27:58;19.48;;;8.98;;
60014;SDS011;45867;52.480;6.056;2023-08-06T02:30:31;13.93;;;9.35;;
60014;SDS011;45867;52.480;6.056;2023-08-06T02:33:27;14.85;;;9.20;;
60014;SDS011;45867;52.480;6.056;2023-08-06T02:36:26;16.63;;;9.38;;
60014;SDS011;45867;52.480;6.056;2023-08-06T02:42:13;15.25;;;9.40;;
60014;SDS011;45867;52.480;6.056;2023-08-06T02:45:03;16.02;;;9.82;;
60014;SDS011;45867;52.480;6.056;2023-08-06T02:47:32;17.48;;;9.52;;
60014;SDS011;45867;52.480;6.056;2023-08-06T02:50:06;13.93;;;9.07;;
60014;SDS011;45867;52.480;6.056;2023-08-06T02:52:33;16.60;;;8.93;;
60014;SDS011;45867;52.480;6.056;2023-08-06T02:55:07;16.20;;;9.65;;
60014;SDS011;45867;52.480;6.056;2023-08-06T02:58:01;16.23;;;9.35;;
60014;SDS011;45867;52.480;6.056;2023-08-06T03:00:42;13.30;;;8.98;;
60014;SDS011;45867;52.480;6.056;2023-08-06T03:03:24;15.52;;;9.30;;
60014;SDS011;45867;52.480;6.056;2023-08-06T03:05:59;17.05;;;9.05;;
60014;SDS011;45867;52.480;6.056;2023-08-06T03:08:40;17.50;;;9.65;;
60014;SDS011;45867;52.480;6.056;2023-08-06T03:11:09;17.08;;;9.40;;
60014;SDS011;45867;52.480;6.056;2023-08-06T03:13:41;17.30;;;9.95;;
60014;SDS011;45867;52.480;6.056;2023-08-06T03:16:07;18.40;;;9.73;;
60014;SDS011;45867;52.480;6.056;2023-08-06T03:18:45;15.13;;;9.05;;
60014;SDS011;45867;52.480;6.056;2023-08-06T03:21:34;19.45;;;9.32;;
60014;SDS011;45867;52.480;6.056;2023-08-06T03:24:07;17.63;;;9.05;;
60014;SDS011;45867;52.480;6.056;2023-08-06T03:26:50;16.13;;;9.25;;
60014;SDS011;45867;52.480;6.056;2023-08-06T03:30:03;15.98;;;8.82;;
60014;SDS011;45867;52.480;6.056;2023-08-06T03:32:38;17.52;;;8.90;;
60014;SDS011;45867;52.480;6.056;2023-08-06T03:35:12;16.30;;;9.20;;
60014;SDS011;45867;52.480;6.056;2023-08-06T03:37:38;21.98;;;9.25;;
60014;SDS011;45867;52.480;6.056;2023-08-06T03:40:27;14.23;;;8.57;;
60014;SDS011;45867;52.480;6.056;2023-08-06T03:43:19;16.55;;;9.60;;
60014;SDS011;45867;52.480;6.056;2023-08-06T03:46:09;14.90;;;9.02;;
60014;SDS011;45867;52.480;6.056;2023-08-06T03:51:52;20.13;;;8.95;;
60014;SDS011;45867;52.480;6.056;2023-08-06T03:54:19;15.10;;;9.30;;
60014;SDS011;45867;52.480;6.056;2023-08-06T03:56:47;16.75;;;10.35;;
60014;SDS011;45867;52.480;6.056;2023-08-06T04:00:00;18.67;;;9.68;;
60014;SDS011;45867;52.480;6.056;2023-08-06T04:02:27;15.60;;;9.68;;
60014;SDS011;45867;52.480;6.056;2023-08-06T04:05:02;15.77;;;9.70;;
60014;SDS011;45867;52.480;6.056;2023-08-06T04:07:45;18.67;;;9.82;;
60014;SDS011;45867;52.480;6.056;2023-08-06T04:10:31;19.08;;;9.98;;
60014;SDS011;45867;52.480;6.056;2023-08-06T04:13:14;15.65;;;9.48;;
60014;SDS011;45867;52.480;6.056;2023-08-06T04:16:04;16.58;;;9.90;;
60014;SDS011;45867;52.480;6.056;2023-08-06T04:18:59;18.10;;;9.90;;
60014;SDS011;45867;52.480;6.056;2023-08-06T04:21:41;19.17;;;10.25;;
60014;SDS011;45867;52.480;6.056;2023-08-06T04:27:38;21.42;;;11.00;;
60014;SDS011;45867;52.480;6.056;2023-08-06T04:37:10;19.30;;;10.60;;
60014;SDS011;45867;52.480;6.056;2023-08-06T04:43:09;21.92;;;11.75;;
60014;SDS011;45867;52.480;6.056;2023-08-06T04:46:05;23.85;;;11.77;;
60014;SDS011;45867;52.480;6.056;2023-08-06T04:48:42;22.13;;;11.93;;
60014;SDS011;45867;52.480;6.056;2023-08-06T04:51:28;21.52;;;12.05;;
60014;SDS011;45867;52.480;6.056;2023-08-06T04:53:56;21.13;;;11.73;;
60014;SDS011;45867;52.480;6.056;2023-08-06T04:56:36;20.10;;;12.18;;
60014;SDS011;45867;52.480;6.056;2023-08-06T04:59:39;19.58;;;11.63;;
60014;SDS011;45867;52.480;6.056;2023-08-06T05:02:05;23.70;;;11.80;;
60014;SDS011;45867;52.480;6.056;2023-08-06T05:04:32;18.88;;;11.82;;
60014;SDS011;45867;52.480;6.056;2023-08-06T05:06:58;18.75;;;11.70;;
60014;SDS011;45867;52.480;6.056;2023-08-06T05:09:26;19.23;;;11.55;;
60014;SDS011;45867;52.480;6.056;2023-08-06T05:11:53;26.70;;;12.35;;
60014;SDS011;45867;52.480;6.056;2023-08-06T05:14:20;28.95;;;11.88;;
60014;SDS011;45867;52.480;6.056;2023-08-06T05:16:50;20.98;;;11.30;;
60014;SDS011;45867;52.480;6.056;2023-08-06T05:19:25;19.23;;;11.52;;
60014;SDS011;45867;52.480;6.056;2023-08-06T05:21:54;28.05;;;11.98;;
60014;SDS011;45867;52.480;6.056;2023-08-06T05:26:56;22.13;;;11.75;;
60014;SDS011;45867;52.480;6.056;2023-08-06T05:29:22;17.05;;;11.95;;
60014;SDS011;45867;52.480;6.056;2023-08-06T05:32:11;20.23;;;12.27;;
60014;SDS011;45867;52.480;6.056;2023-08-06T05:34:38;19.60;;;11.77;;
60014;SDS011;45867;52.480;6.056;2023-08-06T05:37:17;21.10;;;11.82;;
60014;SDS011;45867;52.480;6.056;2023-08-06T05:39:47;19.80;;;12.23;;
60014;SDS011;45867;52.480;6.056;2023-08-06T05:42:13;21.25;;;12.60;;
60014;SDS011;45867;52.480;6.056;2023-08-06T05:44:40;22.58;;;12.43;;
60014;SDS011;45867;52.480;6.056;2023-08-06T05:47:06;22.25;;;12.45;;
60014;SDS011;45867;52.480;6.056;2023-08-06T05:49:33;21.17;;;12.50;;
60014;SDS011;45867;52.480;6.056;2023-08-06T05:51:59;35.95;;;12.90;;
60014;SDS011;45867;52.480;6.056;2023-08-06T05:54:25;21.95;;;12.77;;
60014;SDS011;45867;52.480;6.056;2023-08-06T05:56:52;21.35;;;12.60;;
60014;SDS011;45867;52.480;6.056;2023-08-06T05:59:23;19.85;;;12.98;;
60014;SDS011;45867;52.480;6.056;2023-08-06T06:02:00;21.65;;;12.82;;
60014;SDS011;45867;52.480;6.056;2023-08-06T06:04:56;21.73;;;12.32;;
60014;SDS011;45867;52.480;6.056;2023-08-06T06:07:32;26.02;;;12.45;;
60014;SDS011;45867;52.480;6.056;2023-08-06T06:10:13;23.60;;;12.70;;
60014;SDS011;45867;52.480;6.056;2023-08-06T06:12:42;29.42;;;12.80;;
60014;SDS011;45867;52.480;6.056;2023-08-06T06:15:11;19.27;;;11.57;;
60014;SDS011;45867;52.480;6.056;2023-08-06T06:17:47;23.02;;;12.30;;
60014;SDS011;45867;52.480;6.056;2023-08-06T06:20:15;23.38;;;12.68;;
60014;SDS011;45867;52.480;6.056;2023-08-06T06:22:42;16.35;;;11.38;;
60014;SDS011;45867;52.480;6.056;2023-08-06T06:25:08;21.25;;;11.98;;
60014;SDS011;45867;52.480;6.056;2023-08-06T06:27:35;17.85;;;11.40;;
60014;SDS011;45867;52.480;6.056;2023-08-06T06:30:01;19.27;;;11.82;;
60014;SDS011;45867;52.480;6.056;2023-08-06T06:32:28;18.58;;;11.32;;
60014;SDS011;45867;52.480;6.056;2023-08-06T06:34:57;19.48;;;11.27;;
60014;SDS011;45867;52.480;6.056;2023-08-06T06:37:29;16.10;;;10.55;;
60014;SDS011;45867;52.480;6.056;2023-08-06T06:40:07;16.48;;;10.45;;
60014;SDS011;45867;52.480;6.056;2023-08-06T06:42:54;16.73;;;11.30;;
60014;SDS011;45867;52.480;6.056;2023-08-06T06:45:30;16.23;;;10.95;;
60014;SDS011;45867;52.480;6.056;2023-08-06T06:47:59;21.27;;;11.35;;
60014;SDS011;45867;52.480;6.056;2023-08-06T06:50:26;19.05;;;11.18;;
60014;SDS011;45867;52.480;6.056;2023-08-06T06:52:55;20.42;;;10.63;;
60014;SDS011;45867;52.480;6.056;2023-08-06T06:55:26;18.27;;;11.05;;
60014;SDS011;45867;52.480;6.056;2023-08-06T06:57:59;15.35;;;10.82;;
60014;SDS011;45867;52.480;6.056;2023-08-06T07:00:27;17.80;;;11.02;;
60014;SDS011;45867;52.480;6.056;2023-08-06T07:02:57;16.77;;;10.50;;
60014;SDS011;45867;52.480;6.056;2023-08-06T07:05:25;19.23;;;10.80;;
60014;SDS011;45867;52.480;6.056;2023-08-06T07:07:59;16.50;;;10.55;;
60014;SDS011;45867;52.480;6.056;2023-08-06T07:10:26;14.95;;;10.23;;
60014;SDS011;45867;52.480;6.056;2023-08-06T07:12:52;17.98;;;10.00;;
60014;SDS011;45867;52.480;6.056;2023-08-06T07:15:22;15.70;;;10.10;;
60014;SDS011;45867;52.480;6.056;2023-08-06T07:17:54;15.43;;;9.75;;
60014;SDS011;45867;52.480;6.056;2023-08-06T07:20:26;13.52;;;9.70;;
60014;SDS011;45867;52.480;6.056;2023-08-06T07:22:56;15.00;;;10.40;;
60014;SDS011;45867;52.480;6.056;2023-08-06T07:25:24;19.35;;;9.80;;
60014;SDS011;45867;52.480;6.056;2023-08-06T07:27:52;13.75;;;9.57;;
60014;SDS011;45867;52.480;6.056;2023-08-06T07:30:22;16.98;;;9.75;;
60014;SDS011;45867;52.480;6.056;2023-08-06T07:32:48;13.73;;;9.75;;
60014;SDS011;45867;52.480;6.056;2023-08-06T07:35:15;13.85;;;9.65;;
60014;SDS011;45867;52.480;6.056;2023-08-06T07:37:41;17.52;;;10.68;;
60014;SDS011;45867;52.480;6.056;2023-08-06T07:40:08;16.05;;;10.40;;
60014;SDS011;45867;52.480;6.056;2023-08-06T07:42:35;14.63;;;10.70;;
60014;SDS011;45867;52.480;6.056;2023-08-06T07:45:02;13.80;;;9.73;;
60014;SDS011;45867;52.480;6.056;2023-08-06T07:47:29;19.25;;;10.27;;
60014;SDS011;45867;52.480;6.056;2023-08-06T07:50:07;16.02;;;10.32;;
60014;SDS011;45867;52.480;6.056;2023-08-06T07:52:57;15.45;;;10.20;;
60014;SDS011;45867;52.480;6.056;2023-08-06T07:55:29;15.18;;;10.20;;
60014;SDS011;45867;52.480;6.056;2023-08-06T07:58:14;17.35;;;10.38;;
60014;SDS011;45867;52.480;6.056;2023-08-06T08:00:55;20.33;;;10.77;;
60014;SDS011;45867;52.480;6.056;2023-08-06T08:03:21;17.58;;;10.60;;
60014;SDS011;45867;52.480;6.056;2023-08-06T08:05:50;15.15;;;10.30;;
60014;SDS011;45867;52.480;6.056;2023-08-06T08:08:25;15.07;;;9.50;;
60014;SDS011;45867;52.480;6.056;2023-08-06T08:10:52;14.48;;;10.00;;
60014;SDS011;45867;52.480;6.056;2023-08-06T08:13:21;16.88;;;10.23;;
60014;SDS011;45867;52.480;6.056;2023-08-06T08:15:56;15.90;;;10.43;;
60014;SDS011;45867;52.480;6.056;2023-08-06T08:18:25;17.08;;;10.40;;
60014;SDS011;45867;52.480;6.056;2023-08-06T08:20:52;16.95;;;10.27;;
60014;SDS011;45867;52.480;6.056;2023-08-06T08:23:23;17.40;;;10.55;;
60014;SDS011;45867;52.480;6.056;2023-08-06T08:25:54;14.90;;;10.77;;
60014;SDS011;45867;52.480;6.056;2023-08-06T08:28:23;16.90;;;10.60;;
60014;SDS011;45867;52.480;6.056;2023-08-06T08:30:50;20.45;;;10.90;;
60014;SDS011;45867;52.480;6.056;2023-08-06T08:33:20;16.10;;;10.77;;
60014;SDS011;45867;52.480;6.056;2023-08-06T08:38:20;17.95;;;10.23;;
60014;SDS011;45867;52.480;6.056;2023-08-06T08:40:46;14.38;;;10.45;;
60014;SDS011;45867;52.480;6.056;2023-08-06T08:43:37;16.10;;;11.18;;
60014;SDS011;45867;52.480;6.056;2023-08-06T08:46:12;14.18;;;9.88;;
60014;SDS011;45867;52.480;6.056;2023-08-06T08:49:00;15.43;;;10.23;;
60014;SDS011;45867;52.480;6.056;2023-08-06T08:51:29;15.82;;;10.05;;
60014;SDS011;45867;52.480;6.056;2023-08-06T08:53:56;12.63;;;10.00;;
60014;SDS011;45867;52.480;6.056;2023-08-06T08:56:26;16.50;;;10.30;;
60014;SDS011;45867;52.480;6.056;2023-08-06T08:58:52;13.70;;;10.20;;
60014;SDS011;45867;52.480;6.056;2023-08-06T09:01:22;15.93;;;10.25;;
60014;SDS011;45867;52.480;6.056;2023-08-06T09:03:56;16.17;;;10.52;;
60014;SDS011;45867;52.480;6.056;2023-08-06T09:06:42;18.48;;;10.35;;
60014;SDS011;45867;52.480;6.056;2023-08-06T09:09:13;13.52;;;9.93;;
60014;SDS011;45867;52.480;6.056;2023-08-06T09:11:44;12.75;;;9.40;;
60014;SDS011;45867;52.480;6.056;2023-08-06T09:14:11;12.60;;;8.57;;
60014;SDS011;45867;52.480;6.056;2023-08-06T09:16:38;13.45;;;9.05;;
60014;SDS011;45867;52.480;6.056;2023-08-06T09:19:08;12.13;;;8.82;;
60014;SDS011;45867;52.480;6.056;2023-08-06T09:21:38;15.40;;;8.73;;
60014;SDS011;45867;52.480;6.056;2023-08-06T09:24:09;14.27;;;8.30;;
60014;SDS011;45867;52.480;6.056;2023-08-06T09:26:40;12.95;;;8.27;;
60014;SDS011;45867;52.480;6.056;2023-08-06T09:29:07;12.70;;;8.20;;
60014;SDS011;45867;52.480;6.056;2023-08-06T09:31:47;10.57;;;8.02;;
60014;SDS011;45867;52.480;6.056;2023-08-06T09:34:16;11.85;;;8.30;;
60014;SDS011;45867;52.480;6.056;2023-08-06T09:36:46;11.73;;;7.50;;
60014;SDS011;45867;52.480;6.056;2023-08-06T09:39:18;12.77;;;7.78;;
60014;SDS011;45867;52.480;6.056;2023-08-06T09:41:46;13.30;;;7.35;;
60014;SDS011;45867;52.480;6.056;2023-08-06T09:44:16;14.95;;;8.02;;
60014;SDS011;45867;52.480;6.056;2023-08-06T09:49:24;14.98;;;8.32;;
60014;SDS011;45867;52.480;6.056;2023-08-06T09:51:52;12.15;;;8.63;;
60014;SDS011;45867;52.480;6.056;2023-08-06T09:54:26;10.80;;;8.32;;
60014;SDS011;45867;52.480;6.056;2023-08-06T09:56:54;12.65;;;8.95;;
60014;SDS011;45867;52.480;6.056;2023-08-06T09:59:23;12.63;;;9.10;;
60014;SDS011;45867;52.480;6.056;2023-08-06T10:01:54;12.00;;;8.85;;
60014;SDS011;45867;52.480;6.056;2023-08-06T10:04:21;11.65;;;8.70;;
60014;SDS011;45867;52.480;6.056;2023-08-06T10:07:03;12.70;;;8.90;;
60014;SDS011;45867;52.480;6.056;2023-08-06T10:09:30;12.73;;;8.18;;
60014;SDS011;45867;52.480;6.056;2023-08-06T10:12:00;14.63;;;8.48;;
60014;SDS011;45867;52.480;6.056;2023-08-06T10:14:28;14.07;;;8.02;;
60014;SDS011;45867;52.480;6.056;2023-08-06T10:16:58;12.63;;;7.30;;
60014;SDS011;45867;52.480;6.056;2023-08-06T10:19:26;11.07;;;7.20;;
60014;SDS011;45867;52.480;6.056;2023-08-06T10:24:56;10.55;;;7.10;;
60014;SDS011;45867;52.480;6.056;2023-08-06T10:27:29;10.63;;;7.57;;
60014;SDS011;45867;52.480;6.056;2023-08-06T10:30:09;10.65;;;7.50;;
60014;SDS011;45867;52.480;6.056;2023-08-06T10:32:56;10.10;;;7.55;;
60014;SDS011;45867;52.480;6.056;2023-08-06T10:35:37;8.75;;;7.30;;
60014;SDS011;45867;52.480;6.056;2023-08-06T10:40:42;11.55;;;7.30;;
60014;SDS011;45867;52.480;6.056;2023-08-06T10:43:27;9.75;;;7.20;;
60014;SDS011;45867;52.480;6.056;2023-08-06T10:46:03;8.80;;;6.78;;
60014;SDS011;45867;52.480;6.056;2023-08-06T10:48:36;12.60;;;7.13;;
60014;SDS011;45867;52.480;6.056;2023-08-06T10:51:07;12.73;;;7.20;;
60014;SDS011;45867;52.480;6.056;2023-08-06T10:53:35;9.77;;;7.83;;
60014;SDS011;45867;52.480;6.056;2023-08-06T10:56:14;9.38;;;7.30;;
60014;SDS011;45867;52.480;6.056;2023-08-06T10:58:45;9.65;;;7.60;;
60014;SDS011;45867;52.480;6.056;2023-08-06T11:01:12;10.82;;;6.53;;
60014;SDS011;45867;52.480;6.056;2023-08-06T11:03:39;11.02;;;6.95;;
60014;SDS011;45867;52.480;6.056;2023-08-06T11:06:10;8.10;;;6.50;;
60014;SDS011;45867;52.480;6.056;2023-08-06T11:08:38;8.95;;;6.93;;
60014;SDS011;45867;52.480;6.056;2023-08-06T11:11:15;8.88;;;7.10;;
60014;SDS011;45867;52.480;6.056;2023-08-06T11:13:46;10.25;;;7.20;;
60014;SDS011;45867;52.480;6.056;2023-08-06T11:16:20;8.40;;;6.75;;
60014;SDS011;45867;52.480;6.056;2023-08-06T11:18:49;10.88;;;6.95;;
60014;SDS011;45867;52.480;6.056;2023-08-06T11:21:19;9.48;;;6.63;;
60014;SDS011;45867;52.480;6.056;2023-08-06T11:24:01;7.55;;;6.25;;
60014;SDS011;45867;52.480;6.056;2023-08-06T11:26:27;9.43;;;6.47;;
60014;SDS011;45867;52.480;6.056;2023-08-06T11:28:54;10.40;;;6.85;;
60014;SDS011;45867;52.480;6.056;2023-08-06T11:31:21;9.43;;;6.88;;
60014;SDS011;45867;52.480;6.056;2023-08-06T11:36:29;11.88;;;7.18;;
60014;SDS011;45867;52.480;6.056;2023-08-06T11:38:57;8.95;;;7.88;;
60014;SDS011;45867;52.480;6.056;2023-08-06T11:41:29;11.05;;;7.43;;
60014;SDS011;45867;52.480;6.056;2023-08-06T11:43:56;9.95;;;7.05;;
60014;SDS011;45867;52.480;6.056;2023-08-06T11:46:24;10.15;;;6.68;;
60014;SDS011;45867;52.480;6.056;2023-08-06T11:48:58;8.73;;;6.38;;
60014;SDS011;45867;52.480;6.056;2023-08-06T11:51:25;8.20;;;6.60;;
60014;SDS011;45867;52.480;6.056;2023-08-06T11:54:16;9.20;;;6.72;;
60014;SDS011;45867;52.480;6.056;2023-08-06T11:57:01;10.77;;;7.70;;
60014;SDS011;45867;52.480;6.056;2023-08-06T11:59:45;11.90;;;7.97;;
60014;SDS011;45867;52.480;6.056;2023-08-06T12:02:45;13.48;;;8.07;;
60014;SDS011;45867;52.480;6.056;2023-08-06T12:05:45;9.88;;;7.13;;
60014;SDS011;45867;52.480;6.056;2023-08-06T12:09:07;9.23;;;6.57;;
60014;SDS011;45867;52.480;6.056;2023-08-06T12:11:36;8.10;;;6.00;;
60014;SDS011;45867;52.480;6.056;2023-08-06T12:14:12;7.90;;;5.30;;
60014;SDS011;45867;52.480;6.056;2023-08-06T12:17:22;8.90;;;4.97;;
60014;SDS011;45867;52.480;6.056;2023-08-06T12:20:12;8.05;;;5.18;;
60014;SDS011;45867;52.480;6.056;2023-08-06T12:25:40;8.13;;;4.90;;
60014;SDS011;45867;52.480;6.056;2023-08-06T12:28:33;6.03;;;4.97;;
60014;SDS011;45867;52.480;6.056;2023-08-06T12:34:13;9.32;;;5.50;;
60014;SDS011;45867;52.480;6.056;2023-08-06T12:37:14;7.07;;;5.10;;
60014;SDS011;45867;52.480;6.056;2023-08-06T12:40:18;8.45;;;5.10;;
60014;SDS011;45867;52.480;6.056;2023-08-06T12:43:06;8.45;;;6.45;;
60014;SDS011;45867;52.480;6.056;2023-08-06T12:45:41;9.57;;;6.63;;
60014;SDS011;45867;52.480;6.056;2023-08-06T12:48:36;13.57;;;7.00;;
60014;SDS011;45867;52.480;6.056;2023-08-06T12:51:48;10.00;;;6.97;;
60014;SDS011;45867;52.480;6.056;2023-08-06T12:54:29;11.15;;;6.45;;
60014;SDS011;45867;52.480;6.056;2023-08-06T12:57:03;9.00;;;6.28;;
60014;SDS011;45867;52.480;6.056;2023-08-06T12:59:33;8.23;;;5.17;;
60014;SDS011;45867;52.480;6.056;2023-08-06T13:02:08;5.82;;;4.45;;
60014;SDS011;45867;52.480;6.056;2023-08-06T13:04:37;12.55;;;5.50;;
60014;SDS011;45867;52.480;6.056;2023-08-06T13:07:04;12.07;;;5.10;;
60014;SDS011;45867;52.480;6.056;2023-08-06T13:09:46;7.28;;;4.85;;
60014;SDS011;45867;52.480;6.056;2023-08-06T13:12:14;8.18;;;4.88;;
60014;SDS011;45867;52.480;6.056;2023-08-06T13:14:48;8.00;;;4.28;;
60014;SDS011;45867;52.480;6.056;2023-08-06T13:17:15;9.15;;;4.05;;
60014;SDS011;45867;52.480;6.056;2023-08-06T13:19:49;5.55;;;3.72;;
60014;SDS011;45867;52.480;6.056;2023-08-06T13:22:22;8.02;;;4.15;;
60014;SDS011;45867;52.480;6.056;2023-08-06T13:25:02;7.35;;;4.40;;
60014;SDS011;45867;52.480;6.056;2023-08-06T13:27:31;6.43;;;3.42;;
60014;SDS011;45867;52.480;6.056;2023-08-06T13:29:58;7.57;;;3.30;;
60014;SDS011;45867;52.480;6.056;2023-08-06T13:32:24;7.35;;;3.47;;
60014;SDS011;45867;52.480;6.056;2023-08-06T13:34:54;6.88;;;4.15;;
60014;SDS011;45867;52.480;6.056;2023-08-06T13:37:20;22.55;;;4.68;;
60014;SDS011;45867;52.480;6.056;2023-08-06T13:40:09;17.02;;;4.95;;
60014;SDS011;45867;52.480;6.056;2023-08-06T13:42:36;18.35;;;5.30;;
60014;SDS011;45867;52.480;6.056;2023-08-06T13:45:02;9.13;;;4.70;;
60014;SDS011;45867;52.480;6.056;2023-08-06T13:47:31;10.93;;;5.22;;
60014;SDS011;45867;52.480;6.056;2023-08-06T13:50:01;7.10;;;4.75;;
60014;SDS011;45867;52.480;6.056;2023-08-06T13:52:35;9.48;;;4.93;;
60014;SDS011;45867;52.480;6.056;2023-08-06T13:55:12;13.70;;;5.40;;
60014;SDS011;45867;52.480;6.056;2023-08-06T13:57:41;8.80;;;4.85;;
60014;SDS011;45867;52.480;6.056;2023-08-06T14:00:11;10.40;;;5.35;;
60014;SDS011;45867;52.480;6.056;2023-08-06T14:02:48;9.38;;;5.28;;
60014;SDS011;45867;52.480;6.056;2023-08-06T14:05:26;13.02;;;5.18;;
60014;SDS011;45867;52.480;6.056;2023-08-06T14:07:58;7.93;;;5.10;;
60014;SDS011;45867;52.480;6.056;2023-08-06T14:10:25;10.70;;;5.40;;
60014;SDS011;45867;52.480;6.056;2023-08-06T14:12:55;11.77;;;5.85;;
60014;SDS011;45867;52.480;6.056;2023-08-06T14:15:35;11.20;;;5.88;;
60014;SDS011;45867;52.480;6.056;2023-08-06T14:18:12;13.93;;;5.60;;
60014;SDS011;45867;52.480;6.056;2023-08-06T14:21:06;8.13;;;5.18;;
60014;SDS011;45867;52.480;6.056;2023-08-06T14:23:35;12.63;;;5.65;;
60014;SDS011;45867;52.480;6.056;2023-08-06T14:26:28;12.88;;;6.00;;
60014;SDS011;45867;52.480;6.056;2023-08-06T14:28:57;16.17;;;5.63;;
60014;SDS011;45867;52.480;6.056;2023-08-06T14:31:24;13.40;;;5.28;;
60014;SDS011;45867;52.480;6.056;2023-08-06T15:01:42;7.18;;;3.10;;
60014;SDS011;45867;52.480;6.056;2023-08-06T15:24:47;3.00;;;2.03;;
60014;SDS011;45867;52.480;6.056;2023-08-06T15:27:30;4.40;;;2.58;;
60014;SDS011;45867;52.480;6.056;2023-08-06T16:20:30;10.38;;;1.98;;
60014;SDS011;45867;52.480;6.056;2023-08-06T16:26:49;7.30;;;1.92;;
60014;SDS011;45867;52.480;6.056;2023-08-06T16:29:31;11.50;;;2.40;;
60014;SDS011;45867;52.480;6.056;2023-08-06T16:32:02;7.82;;;1.63;;
60014;SDS011;45867;52.480;6.056;2023-08-06T16:44:50;11.73;;;2.70;;
60014;SDS011;45867;52.480;6.056;2023-08-06T16:47:34;12.98;;;1.63;;
60014;SDS011;45867;52.480;6.056;2023-08-06T16:56:56;8.50;;;2.00;;
60014;SDS011;45867;52.480;6.056;2023-08-06T16:59:40;8.20;;;2.13;;
60014;SDS011;45867;52.480;6.056;2023-08-06T17:02:18;14.45;;;3.35;;
60014;SDS011;45867;52.480;6.056;2023-08-06T17:05:00;8.90;;;1.80;;
60014;SDS011;45867;52.480;6.056;2023-08-06T17:11:14;9.73;;;1.52;;
60014;SDS011;45867;52.480;6.056;2023-08-06T17:17:18;4.38;;;1.23;;
60014;SDS011;45867;52.480;6.056;2023-08-06T17:19:57;7.07;;;1.10;;
60014;SDS011;45867;52.480;6.056;2023-08-06T17:22:30;6.15;;;1.42;;
60014;SDS011;45867;52.480;6.056;2023-08-06T17:25:19;7.05;;;1.10;;
60014;SDS011;45867;52.480;6.056;2023-08-06T17:27:50;9.10;;;1.10;;
60014;SDS011;45867;52.480;6.056;2023-08-06T17:36:57;4.93;;;1.27;;
60014;SDS011;45867;52.480;6.056;2023-08-06T17:39:24;6.47;;;1.77;;
60014;SDS011;45867;52.480;6.056;2023-08-06T17:41:57;5.97;;;1.60;;
60014;SDS011;45867;52.480;6.056;2023-08-06T17:44:38;5.25;;;1.00;;
60014;SDS011;45867;52.480;6.056;2023-08-06T17:47:07;7.22;;;1.17;;
60014;SDS011;45867;52.480;6.056;2023-08-06T17:57:18;4.72;;;1.05;;
60014;SDS011;45867;52.480;6.056;2023-08-06T18:07:30;5.47;;;0.75;;
60014;SDS011;45867;52.480;6.056;2023-08-06T18:09:59;4.85;;;0.90;;
60014;SDS011;45867;52.480;6.056;2023-08-06T18:12:33;7.03;;;1.02;;
60014;SDS011;45867;52.480;6.056;2023-08-06T18:15:14;2.28;;;0.65;;
60014;SDS011;45867;52.480;6.056;2023-08-06T18:20:31;4.78;;;0.82;;
60014;SDS011;45867;52.480;6.056;2023-08-06T18:23:00;6.13;;;1.15;;
60014;SDS011;45867;52.480;6.056;2023-08-06T18:25:30;4.97;;;0.60;;
60014;SDS011;45867;52.480;6.056;2023-08-06T18:27:57;7.38;;;1.27;;
60014;SDS011;45867;52.480;6.056;2023-08-06T18:30:27;2.40;;;0.60;;
60014;SDS011;45867;52.480;6.056;2023-08-06T18:32:54;2.22;;;0.80;;
60014;SDS011;45867;52.480;6.056;2023-08-06T18:35:23;5.20;;;1.02;;
60014;SDS011;45867;52.480;6.056;2023-08-06T18:37:50;8.95;;;1.15;;
60014;SDS011;45867;52.480;6.056;2023-08-06T18:40:31;3.28;;;0.82;;
60014;SDS011;45867;52.480;6.056;2023-08-06T18:43:03;7.28;;;1.52;;
60014;SDS011;45867;52.480;6.056;2023-08-06T18:45:34;4.68;;;1.25;;